createdAt,value
2022-12-06T00:02:23.240Z,3.30
2022-12-06T00:07:25.042Z,3.30
2022-12-06T00:12:27.386Z,3.30
2022-12-06T00:17:29.190Z,3.40
2022-12-06T00:22:31.067Z,3.40
2022-12-06T00:27:32.906Z,3.20
2022-12-06T00:32:34.701Z,3.40
2022-12-06T00:37:37.318Z,3.50
2022-12-06T00:42:39.134Z,3.60
2022-12-06T00:47:40.931Z,3.60
2022-12-06T00:52:42.730Z,3.70
2022-12-06T00:57:44.539Z,3.70
2022-12-06T01:02:46.414Z,3.70
2022-12-06T01:07:48.307Z,3.60
2022-12-06T01:12:50.199Z,3.60
2022-12-06T01:17:52.006Z,3.40
2022-12-06T01:22:54.038Z,3.50
2022-12-06T01:27:55.856Z,3.40
2022-12-06T01:32:57.654Z,3.40
2022-12-06T01:38:05.853Z,3.30
2022-12-06T01:43:35.661Z,3.30
2022-12-06T01:48:38.966Z,3.20
2022-12-06T01:53:41.799Z,3.20
2022-12-06T01:58:45.531Z,3.30
2022-12-06T02:03:48.581Z,3.30
2022-12-06T02:08:52.153Z,3.20
2022-12-06T02:13:54.891Z,3.20
2022-12-06T02:19:06.186Z,3.10
2022-12-06T02:24:34.701Z,3.10
2022-12-06T02:30:09.496Z,3.10
2022-12-06T02:35:25.363Z,3.20
2022-12-06T02:40:36.578Z,3.20
2022-12-06T02:45:43.859Z,3.20
2022-12-06T02:50:52.961Z,3.20
2022-12-06T02:55:56.049Z,3.10
2022-12-06T03:01:04.447Z,3.20
2022-12-06T03:06:43.490Z,3.20
2022-12-06T03:12:14.166Z,3.30
2022-12-06T03:17:22.961Z,3.40
2022-12-06T03:22:38.225Z,3.40
2022-12-06T03:27:43.041Z,3.40
2022-12-06T03:32:49.195Z,3.50
2022-12-06T03:37:57.217Z,3.40
2022-12-06T03:43:00.216Z,3.40
2022-12-06T03:48:08.453Z,3.30
2022-12-06T03:53:10.497Z,3.30
2022-12-06T03:58:13.121Z,3.30
2022-12-06T04:03:14.962Z,3.40
2022-12-06T04:08:16.837Z,3.30
2022-12-06T04:13:19.872Z,3.40
2022-12-06T04:18:22.733Z,3.30
2022-12-06T04:23:24.597Z,3.40
2022-12-06T04:28:45.638Z,3.20
2022-12-06T04:34:05.926Z,3.10
2022-12-06T04:39:07.850Z,3.10
2022-12-06T04:44:10.381Z,3.00
2022-12-06T04:49:12.209Z,3.00
2022-12-06T04:54:14.092Z,3.00
2022-12-06T04:59:16.048Z,3.00
2022-12-06T05:04:18.089Z,3.00
2022-12-06T05:09:20.111Z,3.00
2022-12-06T05:14:21.991Z,3.00
2022-12-06T05:19:23.859Z,3.00
2022-12-06T05:24:25.826Z,3.00
2022-12-06T05:29:27.719Z,2.90
2022-12-06T05:34:29.548Z,2.90
2022-12-06T05:39:31.390Z,2.90
2022-12-06T05:44:33.193Z,2.90
2022-12-06T05:49:35.218Z,2.90
2022-12-06T05:54:37.056Z,2.90
2022-12-06T05:59:38.910Z,2.90
2022-12-06T06:04:40.697Z,2.90
2022-12-06T06:09:42.466Z,3.00
2022-12-06T06:14:44.237Z,3.00
2022-12-06T06:19:51.212Z,3.10
2022-12-06T06:24:53.284Z,3.00
2022-12-06T06:29:55.085Z,3.00
2022-12-06T06:34:56.858Z,3.10
2022-12-06T06:39:59.405Z,3.20
2022-12-06T06:45:01.579Z,3.20
2022-12-06T06:50:03.993Z,3.00
2022-12-06T06:55:06.190Z,3.00
2022-12-06T07:00:09.317Z,2.90
2022-12-06T07:05:11.121Z,2.90
2022-12-06T07:10:13.325Z,2.90
2022-12-06T07:15:15.670Z,2.90
2022-12-06T07:20:18.783Z,2.90
2022-12-06T07:25:20.801Z,3.10
2022-12-06T07:30:27.185Z,3.20
2022-12-06T07:35:48.593Z,3.30
2022-12-06T07:41:06.555Z,3.30
2022-12-06T07:46:12.209Z,3.20
2022-12-06T07:51:14.079Z,3.20
2022-12-06T07:56:15.894Z,3.10
2022-12-06T08:01:17.844Z,3.10
2022-12-06T08:06:19.710Z,3.20
2022-12-06T08:11:22.800Z,3.10
2022-12-06T08:16:24.684Z,3.20
2022-12-06T08:21:26.961Z,3.30
2022-12-06T08:26:28.798Z,3.40
2022-12-06T08:31:34.720Z,3.40
2022-12-06T08:36:38.962Z,3.60
2022-12-06T08:41:55.955Z,3.70
2022-12-06T08:46:59.526Z,3.80
2022-12-06T08:52:01.431Z,3.80
2022-12-06T08:57:03.418Z,3.70
2022-12-06T09:02:05.413Z,3.80
2022-12-06T09:07:11.499Z,3.80
2022-12-06T09:12:13.892Z,3.80
2022-12-06T09:17:16.155Z,3.90
2022-12-06T09:22:18.049Z,3.90
2022-12-06T09:27:20.392Z,3.80
2022-12-06T09:32:22.206Z,3.80
2022-12-06T09:37:24.294Z,3.70
2022-12-06T09:42:29.128Z,3.60
2022-12-06T09:47:55.748Z,3.50
2022-12-06T09:53:12.637Z,3.60
2022-12-06T09:58:31.236Z,3.60
2022-12-06T10:03:48.729Z,3.60
2022-12-06T10:09:11.626Z,3.50
2022-12-06T10:14:27.015Z,3.60
2022-12-06T10:19:40.722Z,3.50
2022-12-06T10:25:07.560Z,3.60
2022-12-06T10:30:12.404Z,3.70
2022-12-06T10:35:21.320Z,3.70
2022-12-06T10:40:23.266Z,3.80
2022-12-06T10:45:53.562Z,4.00
2022-12-06T10:51:05.044Z,4.00
2022-12-06T10:56:24.630Z,3.80
2022-12-06T11:01:31.269Z,3.80
2022-12-06T11:06:55.260Z,3.90
2022-12-06T11:11:57.560Z,4.10
2022-12-06T11:17:14.766Z,4.20
2022-12-06T11:23:06.031Z,4.40
2022-12-06T11:28:21.751Z,4.20
2022-12-06T11:33:32.702Z,4.20
2022-12-06T11:38:39.598Z,4.30
2022-12-06T11:43:41.626Z,4.30
2022-12-06T11:48:44.037Z,4.30
2022-12-06T11:54:07.684Z,4.50
2022-12-06T11:59:28.749Z,4.70
2022-12-06T12:04:39.793Z,4.60
2022-12-06T12:09:59.072Z,4.60
2022-12-06T12:15:01.237Z,4.50
2022-12-06T12:20:08.745Z,4.50
2022-12-06T12:25:27.744Z,4.20
2022-12-06T12:30:38.282Z,4.20
2022-12-06T12:35:46.018Z,4.20
2022-12-06T12:41:16.478Z,4.20
2022-12-06T12:46:21.552Z,4.10
2022-12-06T12:51:35.434Z,4.00
2022-12-06T12:56:37.877Z,3.70
2022-12-06T13:01:44.172Z,3.70
2022-12-06T13:07:01.421Z,3.60
2022-12-06T13:12:12.952Z,3.60
2022-12-06T13:17:15.214Z,3.50
2022-12-06T13:22:23.916Z,3.50
2022-12-06T13:27:27.088Z,3.50
2022-12-06T13:32:43.800Z,3.60
2022-12-06T13:38:01.706Z,3.60
2022-12-06T13:43:25.752Z,3.60
2022-12-06T13:48:27.636Z,3.60
2022-12-06T13:53:34.428Z,3.60
2022-12-06T13:58:40.976Z,3.60
2022-12-06T14:03:53.951Z,3.60
2022-12-06T14:09:00.145Z,3.50
2022-12-06T14:14:09.000Z,3.50
2022-12-06T14:19:22.334Z,3.40
2022-12-06T14:24:37.087Z,3.20
2022-12-06T14:29:39.773Z,3.20
2022-12-06T14:34:42.024Z,3.00
2022-12-06T14:39:51.438Z,3.10
2022-12-06T14:45:01.735Z,3.00
2022-12-06T14:50:26.928Z,2.90
2022-12-06T14:55:31.760Z,2.80
2022-12-06T15:00:38.219Z,2.70
2022-12-06T15:05:51.970Z,2.60
2022-12-06T15:10:59.788Z,2.50
2022-12-06T15:16:07.751Z,2.40
2022-12-06T15:21:17.388Z,2.40
2022-12-06T15:26:20.926Z,2.30
2022-12-06T15:31:27.910Z,2.30
2022-12-06T15:36:33.279Z,2.30
2022-12-06T15:41:35.106Z,2.40
2022-12-06T15:46:36.941Z,2.50
2022-12-06T15:51:38.852Z,2.60
2022-12-06T15:56:40.675Z,2.60
2022-12-06T16:01:45.487Z,2.60
2022-12-06T16:06:48.058Z,2.60
2022-12-06T16:11:49.974Z,2.60
2022-12-06T16:16:51.871Z,2.60
2022-12-06T16:21:56.281Z,2.60
2022-12-06T16:26:58.110Z,2.60
2022-12-06T16:32:00.042Z,2.60
2022-12-06T16:37:04.862Z,2.40
2022-12-06T16:42:06.696Z,2.50
2022-12-06T16:47:08.606Z,2.60
2022-12-06T16:52:10.496Z,2.60
2022-12-06T16:57:13.109Z,2.60
2022-12-06T17:02:31.970Z,2.70
2022-12-06T17:07:35.233Z,2.70
2022-12-06T17:12:37.221Z,2.70
2022-12-06T17:17:39.040Z,2.70
2022-12-06T17:22:42.089Z,2.70
2022-12-06T17:27:43.899Z,2.70
2022-12-06T17:32:46.790Z,2.70
2022-12-06T17:37:48.607Z,2.70
2022-12-06T17:42:59.359Z,2.70
2022-12-06T17:48:01.315Z,2.70
2022-12-06T17:53:04.135Z,2.70
2022-12-06T17:58:06.119Z,2.70
2022-12-06T18:03:07.962Z,2.80
2022-12-06T18:08:11.257Z,2.80
2022-12-06T18:13:13.101Z,2.70
2022-12-06T18:18:14.935Z,2.80
2022-12-06T18:23:17.248Z,2.80
2022-12-06T18:28:19.070Z,2.70
2022-12-06T18:33:23.378Z,2.60
2022-12-06T18:38:28.235Z,2.70
2022-12-06T18:43:30.274Z,2.60
2022-12-06T18:48:32.550Z,2.60
2022-12-06T18:53:35.458Z,2.60
2022-12-06T18:58:37.295Z,2.60
2022-12-06T19:03:39.475Z,2.60
2022-12-06T19:08:43.473Z,2.60
2022-12-06T19:13:53.443Z,2.60
2022-12-06T19:18:57.546Z,2.50
2022-12-06T19:24:00.478Z,2.50
2022-12-06T19:29:06.659Z,2.50
2022-12-06T19:34:23.425Z,2.30
2022-12-06T19:39:27.002Z,2.30
2022-12-06T19:44:29.879Z,2.20
2022-12-06T19:49:31.952Z,2.30
2022-12-06T19:54:38.404Z,2.20
2022-12-06T19:59:40.336Z,2.20
2022-12-06T20:04:43.313Z,2.20
2022-12-06T20:09:48.130Z,2.10
2022-12-06T20:14:50.042Z,2.20
2022-12-06T20:19:52.439Z,2.10
2022-12-06T20:24:54.403Z,2.10
2022-12-06T20:29:56.249Z,2.10
2022-12-06T20:40:28.382Z,2.10
2022-12-06T20:45:37.271Z,2.00
2022-12-06T20:50:39.726Z,2.00
2022-12-06T20:55:43.089Z,2.00
2022-12-06T21:00:44.990Z,2.00
2022-12-06T21:05:52.326Z,2.10
2022-12-06T21:11:21.762Z,1.90
2022-12-06T21:16:22.697Z,2.00
2022-12-06T21:21:27.670Z,1.90
2022-12-06T21:26:30.580Z,1.90
2022-12-06T21:31:35.535Z,1.90
2022-12-06T21:36:37.610Z,1.90
2022-12-06T21:41:39.681Z,1.70
2022-12-06T21:46:41.580Z,1.80
2022-12-06T21:51:43.438Z,1.70
2022-12-06T21:56:45.298Z,1.80
2022-12-06T22:01:50.171Z,1.60
2022-12-06T22:06:52.392Z,1.70
2022-12-06T22:11:54.186Z,1.70
2022-12-06T22:16:56.011Z,1.70
2022-12-06T22:21:58.878Z,1.70
2022-12-06T22:27:00.731Z,1.70
2022-12-06T22:32:02.558Z,1.80
2022-12-06T22:37:04.390Z,1.70
2022-12-06T22:42:06.278Z,1.70
2022-12-06T22:47:08.275Z,1.80
2022-12-06T22:52:10.103Z,1.70
2022-12-06T22:57:11.896Z,1.70
2022-12-06T23:02:13.803Z,1.80
2022-12-06T23:07:15.730Z,1.80
2022-12-06T23:12:17.526Z,1.80
2022-12-06T23:17:19.336Z,1.70
2022-12-06T23:22:21.134Z,1.80
2022-12-06T23:27:22.929Z,1.80
2022-12-06T23:32:24.746Z,1.70
2022-12-06T23:37:26.539Z,1.80
2022-12-06T23:42:28.873Z,1.70
2022-12-06T23:47:30.723Z,1.80
2022-12-06T23:52:32.529Z,1.80
2022-12-06T23:57:34.361Z,1.80
